Résultats sport de masse course à pied

Résultats : Les Galopades tranchaises - Trail 8km

Classement général Classement Sexe Nom, prénom Catégorie Sexe Club Temps global
5 1 JAIN-GARCIA Celine SE F SEMELLES DE VENT 00:37:27
42 2 FERRE Marjorie SE F 00:50:11
44 3 TOUVRON EMMA CA F TEAM COSEL 00:50:22
48 4 DESTENAY Véronique SE F 00:51:27
49 5 LEYMARIE MARION SE F 00:51:42
50 6 BARON Hélène SE F 00:52:04
51 7 BOURASSEAU Anne-Sophie SE F 00:52:09
54 8 CHEVALLIER Valérie V2 F 00:52:30
59 9 MECCHIA Catherine V2 F 00:52:37
64 10 LAMORINIERE LAURENCE V2 F 00:53:35
65 11 TALBOURDET Cécile SE F 00:53:39
66 12 FRECHE Angélique V1 F 00:53:45
73 13 SICARD CATHERINE V2 F 00:54:34
75 14 BOURGEOIS Colette V3 F ST MICHEL SPORTS 00:54:55
77 15 BUCHY Sylvie V2 F 00:55:27
79 16 DESGROUAS Sabrina V1 F 00:56:33
81 17 EVAIN ISABELLE V1 F SABLES ETUDIANT CLUB ATHLE 00:56:37
82 18 RAVON Isabelle V1 F S/L ESM CHALLANS 00:56:54
83 19 COSSIAUX REGINE V2 F 00:57:06
86 20 DECAUX Marie-France V3 F 00:57:33
87 21 COUTURIER Mélanie SE F 00:57:51
88 22 MERLET Estelle SE F 00:58:21
91 23 MAURELLET Florence V1 F 00:59:16
92 24 GUERIN Lamia V2 F 00:59:16
94 25 CADORET Yolande V2 F AC PLESCOP 00:59:41
96 26 FERRY Adèle SE F 00:59:51
97 27 LESAGE Jeanne CA F 01:00:04
98 28 TRIBODET Anne SE F 01:00:17
101 29 BRONNER Valérie V2 F 01:00:26
102 30 GROSDENIER Aurore SE F 01:00:31
103 31 MAIXANDEAU-DUARTE Aurélie SE F 01:00:41
105 32 RATELADE Valérie V1 F 01:00:51
106 33 SAMMUT Christelle V2 F LENCLOITRE JC86 01:01:03
108 34 BOUHIER Fanny SE F 01:01:33
109 35 EON Alexandra SE F 01:01:52
110 36 ROBINEAU Laurence V1 F 01:01:55
111 37 PEROCHEAU Amandine SE F 01:01:55
113 38 LE JEUNE Valérie V2 F 01:02:03
115 39 LEMERCIER VIRGINIE SE F OPERATION HOMARD LE RETOUR 01:02:12
119 40 MAILLAUD Céline SE F 01:02:16
120 41 SORIN Charline SE F 01:02:16
121 42 GUYOT NELLY V2 F 01:02:25
122 43 HAMEL STEPHANIE V1 F S/L ESM CHALLANS 01:02:26
125 44 BONNET Magali V1 F 01:02:34
127 45 LAMI Charlotte SE F 01:02:47
130 46 GUILLOT Juliette CA F 01:02:55
131 47 MINIER CECILE V1 F S/L A.B.V. POUZAUGES 01:03:09
132 48 SPY Valérie V1 F SPRITZ 01:03:10
134 49 POIRIER Tatiana SE F 01:03:13
136 50 GUILMINEAU Delphine V1 F 01:03:17
Première page Page précédente 1 2